Maple Hill, Iowa
Current Conditions -  °F | °C
As of 7:52 AM on Monday 22 Dec 2014 (Local Time) from KEST Reporting Station
Haze Haze  
Wind Chill: 27°   Ceiling: 200
Heat Index: 37°   Visibility: 1mi
Dew Point: 37°   Wind: 18mph
Humidity: 100%   Direction: 150°SSE
Pressure: 29.56"   Gusts: 26mph
Location:  43.4207°N, 94.5018°W
Report Text: KEST 221352Z AUTO 15016G23KT 1SM UP BR OVC002 03/03 A2956 RMK AO2 UPB24 SLP020 P0001 T00280028
Loading
Personal Weather Stations






























Interactive Weather Map New forecast layout! Learn more

10-Day Weather Forecast

Advertisements
Track Severe Weather on mobile